Arthur Maersk — OXJH2 — position and weather

sailwx.info

Track history (hours):
 
Tides and Currents Weather Stations Pressure Air Temp Water Temp Dewpoint Dewpoint Depression Visibility Wind Speed Wind Dir Waves Ship Positions

Arthur Maersk

Last reported at 2015-Sep-03 16:33 UTC. Time now 2015-Sep-03 17:15 UTC.
Position N 37°34' W 074°12'.

Length 352 m; draft 11.5 m.

Type: Cargo ship. MMSI: 220221000.

Date/timePositionNaut miles runAvg speedWind from/ knotsBaromVisibWave heightAir tempDewpointWater temp
2015-Sep-03 16:33N 37°34' W 074°12'1514.7
2015-Sep-03 15:33N 37°48' W 074°09'1814.7
2015-Sep-03 14:19N 38°06' W 074°06'1114.7
2015-Sep-03 13:33N 38°17' W 074°03'1514.6
2015-Sep-03 12:33N 38°32' W 074°00'1515.1
2015-Sep-03 11:33N 38°46' W 073°57'1413.6
2015-Sep-03 10:33N 38°60' W 073°55'1414.5
2015-Sep-03 09:33N 39°14' W 073°54'1414.5
2015-Sep-03 08:33N 39°29' W 073°52'1414.2
2015-Sep-03 07:33N 39°43' W 073°51'1414.3
2015-Sep-03 06:33N 39°57' W 073°50'1414.2
2015-Sep-03 05:34N 40°11' W 073°50'1413.8
2015-Sep-03 04:34N 40°25' W 073°48'1111.2
2015-Sep-03 03:34N 40°31' W 074°00'9 8.9
2015-Sep-03 02:34N 40°39' W 074°07'2 2.0
2015-Sep-03 01:34N 40°40' W 074°09'0 0.0
2015-Sep-03 00:31N 40°40' W 074°09'0 0.0
2015-Sep-02 23:31N 40°40' W 074°09'0 0.0
2015-Sep-02 22:31N 40°40' W 074°09'0 0.0
2015-Sep-02 21:31N 40°40' W 074°09'0 0.0
2015-Sep-02 20:28N 40°40' W 074°09'0 0.0
2015-Sep-02 19:31N 40°40' W 074°09'0 0.0
2015-Sep-02 18:31N 40°40' W 074°09'0 0.0
2015-Sep-02 17:28N 40°40' W 074°09'0 0.0
2015-Sep-02 16:31N 40°40' W 074°09'0 0.0
2015-Sep-02 15:28N 40°40' W 074°09'0 0.0
2015-Sep-02 14:31N 40°40' W 074°09'0 0.0
2015-Sep-02 13:31N 40°40' W 074°09'0 0.0
2015-Sep-02 12:31N 40°40' W 074°09'0 0.0
2015-Sep-02 11:31N 40°40' W 074°09'1 1.3
2015-Sep-02 10:34N 40°39' W 074°09'5 5.2
2015-Sep-02 09:33N 40°37' W 074°03'1211.3
2015-Sep-02 08:32N 40°28' W 073°52'1212.0
2015-Sep-02 07:33N 40°27' W 073°37'1918.5
2015-Sep-02 06:33N 40°29' W 073°13'1817.6
2015-Sep-02 05:33N 40°30' W 072°49'1312.8
2015-Sep-02 04:34N 40°30' W 072°33'1514.7
2015-Sep-02 03:33N 40°31' W 072°13'1414.5
2015-Sep-02 02:33N 40°31' W 071°54'1615.6
2015-Sep-02 01:33N 40°31' W 071°34'1616.3
2015-Sep-02 00:33N 40°32' W 071°12'1716.7
2015-Sep-01 23:34N 40°32' W 070°50'1716.7
2015-Sep-01 22:34N 40°32' W 070°28'1717.5
2015-Sep-01 21:34N 40°32' W 070°05'1817.8
2015-Sep-01 20:34N 40°33' W 069°42'1717.4
2015-Sep-01 19:33N 40°34' W 069°19'1818.4
2015-Sep-01 18:33N 40°34' W 068°55'1918.4
2015-Sep-01 17:32N 40°31' W 068°30'2018.9
2015-Sep-01 16:28N 40°25' W 068°05'  
2015-Aug-27 18:07N 37°11' W 012°11'1322.5
2015-Aug-27 17:32N 37°07' W 011°55'2322.7
2015-Aug-27 16:31N 36°59' W 011°29'2222.6
2015-Aug-27 15:33N 36°51' W 011°03'2322.4
2015-Aug-27 14:33N 36°42' W 010°38'2322.5
2015-Aug-27 13:31N 36°31' W 010°12'2222.3
2015-Aug-27 12:30N 36°22' W 009°47'2522.4
2015-Aug-27 11:23N 36°14' W 009°17'2022.7
2015-Aug-27 10:31N 36°12' W 008°53'2122.4
2015-Aug-27 09:34N 36°10' W 008°26'2322.5
2015-Aug-27 08:32N 36°07' W 007°58'37622.0
2015-Aug-26 15:24N 36°42' W 000°12'13422.8
2015-Aug-26 09:31N 37°04' E 002°33'7723.0
2015-Aug-26 06:09N 37°14' E 004°09'2022.8
2015-Aug-26 05:17N 37°18' E 004°34'2022.6
2015-Aug-26 04:25N 37°19' E 004°59'2022.9
2015-Aug-26 03:33N 37°23' E 005°23'2322.9
2015-Aug-26 02:33N 37°25' E 005°52'2823.5
2015-Aug-26 01:21N 37°28' E 006°27'13222.6
2015-Aug-25 19:31N 37°43' E 009°12'2122.1
2015-Aug-25 18:33N 37°42' E 009°39'4721.8
2015-Aug-25 16:25N 37°33' E 010°37'1921.9
2015-Aug-25 15:33N 37°30' E 010°60'2222.2
2015-Aug-25 14:33N 37°22' E 011°26'2222.5
2015-Aug-25 13:33N 37°10' E 011°50'2322.7
2015-Aug-25 12:33N 37°00' E 012°16'4422.2
2015-Aug-25 10:33N 36°48' E 013°09'2422.6
2015-Aug-25 09:31N 36°40' E 013°37'2222.8
2015-Aug-25 08:33N 36°33' E 014°03'2322.9
2015-Aug-25 07:33N 36°27' E 014°30'2322.6
2015-Aug-25 06:33N 36°19' E 014°57'2322.5
2015-Aug-25 05:33N 36°13' E 015°24'2322.5
2015-Aug-25 04:31N 36°06' E 015°51'2222.6
2015-Aug-25 03:33N 35°59' E 016°17'2222.6
2015-Aug-25 02:33N 35°53' E 016°43'2822.5
2015-Aug-25 01:18N 35°44' E 017°16'1722.4
2015-Aug-25 00:33N 35°39' E 017°36'2222.2
2015-Aug-24 23:33N 35°32' E 018°02'2322.3
2015-Aug-24 22:33N 35°26' E 018°28'4522.7
2015-Aug-24 20:33N 35°12' E 019°21'2322.8
2015-Aug-24 19:33N 35°05' E 019°48'  
Track history (hours):
 
Tides and Currents Weather Stations Pressure Air Temp Water Temp Dewpoint Dewpoint Depression Visibility Wind Speed Wind Dir Waves Ship Positions

Arthur Maersk

Last reported at 2015-Sep-03 16:33 UTC. Time now 2015-Sep-03 17:15 UTC.
Position N 37°34' W 074°12'.

Length 352 m; draft 11.5 m.

Type: Cargo ship. MMSI: 220221000.

Date/timePositionNaut miles runAvg speedWind from/ knotsBaromVisibWave heightAir tempDewpointWater temp
2015-Sep-03 16:33N 37°34' W 074°12'1514.7
2015-Sep-03 15:33N 37°48' W 074°09'1814.7
2015-Sep-03 14:19N 38°06' W 074°06'1114.7
2015-Sep-03 13:33N 38°17' W 074°03'1514.6
2015-Sep-03 12:33N 38°32' W 074°00'1515.1
2015-Sep-03 11:33N 38°46' W 073°57'1413.6
2015-Sep-03 10:33N 38°60' W 073°55'1414.5
2015-Sep-03 09:33N 39°14' W 073°54'1414.5
2015-Sep-03 08:33N 39°29' W 073°52'1414.2
2015-Sep-03 07:33N 39°43' W 073°51'1414.3
2015-Sep-03 06:33N 39°57' W 073°50'1414.2
2015-Sep-03 05:34N 40°11' W 073°50'1413.8
2015-Sep-03 04:34N 40°25' W 073°48'1111.2
2015-Sep-03 03:34N 40°31' W 074°00'9 8.9
2015-Sep-03 02:34N 40°39' W 074°07'2 2.0
2015-Sep-03 01:34N 40°40' W 074°09'0 0.0
2015-Sep-03 00:31N 40°40' W 074°09'0 0.0
2015-Sep-02 23:31N 40°40' W 074°09'0 0.0
2015-Sep-02 22:31N 40°40' W 074°09'0 0.0
2015-Sep-02 21:31N 40°40' W 074°09'0 0.0
2015-Sep-02 20:28N 40°40' W 074°09'0 0.0
2015-Sep-02 19:31N 40°40' W 074°09'0 0.0
2015-Sep-02 18:31N 40°40' W 074°09'0 0.0
2015-Sep-02 17:28N 40°40' W 074°09'0 0.0
2015-Sep-02 16:31N 40°40' W 074°09'0 0.0
2015-Sep-02 15:28N 40°40' W 074°09'0 0.0
2015-Sep-02 14:31N 40°40' W 074°09'0 0.0
2015-Sep-02 13:31N 40°40' W 074°09'0 0.0
2015-Sep-02 12:31N 40°40' W 074°09'0 0.0
2015-Sep-02 11:31N 40°40' W 074°09'1 1.3
2015-Sep-02 10:34N 40°39' W 074°09'5 5.2
2015-Sep-02 09:33N 40°37' W 074°03'1211.3
2015-Sep-02 08:32N 40°28' W 073°52'1212.0
2015-Sep-02 07:33N 40°27' W 073°37'1918.5
2015-Sep-02 06:33N 40°29' W 073°13'1817.6
2015-Sep-02 05:33N 40°30' W 072°49'1312.8
2015-Sep-02 04:34N 40°30' W 072°33'1514.7
2015-Sep-02 03:33N 40°31' W 072°13'1414.5
2015-Sep-02 02:33N 40°31' W 071°54'1615.6
2015-Sep-02 01:33N 40°31' W 071°34'1616.3
2015-Sep-02 00:33N 40°32' W 071°12'1716.7
2015-Sep-01 23:34N 40°32' W 070°50'1716.7
2015-Sep-01 22:34N 40°32' W 070°28'1717.5
2015-Sep-01 21:34N 40°32' W 070°05'1817.8
2015-Sep-01 20:34N 40°33' W 069°42'1717.4
2015-Sep-01 19:33N 40°34' W 069°19'1818.4
2015-Sep-01 18:33N 40°34' W 068°55'1918.4
2015-Sep-01 17:32N 40°31' W 068°30'2018.9
2015-Sep-01 16:28N 40°25' W 068°05'  
2015-Aug-27 18:07N 37°11' W 012°11'1322.5
2015-Aug-27 17:32N 37°07' W 011°55'2322.7
2015-Aug-27 16:31N 36°59' W 011°29'2222.6
2015-Aug-27 15:33N 36°51' W 011°03'2322.4
2015-Aug-27 14:33N 36°42' W 010°38'2322.5
2015-Aug-27 13:31N 36°31' W 010°12'2222.3
2015-Aug-27 12:30N 36°22' W 009°47'2522.4
2015-Aug-27 11:23N 36°14' W 009°17'2022.7
2015-Aug-27 10:31N 36°12' W 008°53'2122.4
2015-Aug-27 09:34N 36°10' W 008°26'2322.5
2015-Aug-27 08:32N 36°07' W 007°58'37622.0
2015-Aug-26 15:24N 36°42' W 000°12'13422.8
2015-Aug-26 09:31N 37°04' E 002°33'7723.0
2015-Aug-26 06:09N 37°14' E 004°09'2022.8
2015-Aug-26 05:17N 37°18' E 004°34'2022.6
2015-Aug-26 04:25N 37°19' E 004°59'2022.9
2015-Aug-26 03:33N 37°23' E 005°23'2322.9
2015-Aug-26 02:33N 37°25' E 005°52'2823.5
2015-Aug-26 01:21N 37°28' E 006°27'13222.6
2015-Aug-25 19:31N 37°43' E 009°12'2122.1
2015-Aug-25 18:33N 37°42' E 009°39'4721.8
2015-Aug-25 16:25N 37°33' E 010°37'1921.9
2015-Aug-25 15:33N 37°30' E 010°60'2222.2
2015-Aug-25 14:33N 37°22' E 011°26'2222.5
2015-Aug-25 13:33N 37°10' E 011°50'2322.7
2015-Aug-25 12:33N 37°00' E 012°16'4422.2
2015-Aug-25 10:33N 36°48' E 013°09'2422.6
2015-Aug-25 09:31N 36°40' E 013°37'2222.8
2015-Aug-25 08:33N 36°33' E 014°03'2322.9
2015-Aug-25 07:33N 36°27' E 014°30'2322.6
2015-Aug-25 06:33N 36°19' E 014°57'2322.5
2015-Aug-25 05:33N 36°13' E 015°24'2322.5
2015-Aug-25 04:31N 36°06' E 015°51'2222.6
2015-Aug-25 03:33N 35°59' E 016°17'2222.6
2015-Aug-25 02:33N 35°53' E 016°43'2822.5
2015-Aug-25 01:18N 35°44' E 017°16'1722.4
2015-Aug-25 00:33N 35°39' E 017°36'2222.2
2015-Aug-24 23:33N 35°32' E 018°02'2322.3
2015-Aug-24 22:33N 35°26' E 018°28'4522.7
2015-Aug-24 20:33N 35°12' E 019°21'2322.8
2015-Aug-24 19:33N 35°05' E 019°48'  

Dump ship's entire track history